Time;durP1;ratioP1;P1;durP2;ratioP2;P2;SDS_P1;SDS_P2;PMS_P1;PMS_P2;Temp;Humidity;BMP_temperature;BMP_pressure;BME280_temperature;BME280_humidity;BME280_pressure;Samples;Min_cycle;Max_cycle;Signal;HPM_P1;HPM_P2
2023/03/11 00:01:00;;;;;;;;;;;;;;;9.74;66.41;95241.20;110188;1243;69111;-67
2023/03/11 00:03:30;;;;;;;;;;;;;;;9.82;66.44;95239.75;110167;1244;59741;-67
2023/03/11 00:06:00;;;;;;;;;;;;;;;9.86;66.61;95234.81;110170;1243;59699;-68
2023/03/11 00:08:30;;;;;;;;;;;;;;;9.88;66.56;95227.73;110133;1245;71030;-68
2023/03/11 00:11:00;;;;;;;;;;;;;;;9.92;66.56;95230.84;110167;1243;68551;-67
2023/03/11 00:13:30;;;;;;;;;;;;;;;9.96;66.57;95232.02;110146;1241;68586;-68
2023/03/11 00:16:00;;;;;;;;;;;;;;;9.97;66.55;95223.14;110148;1241;59745;-68
2023/03/11 00:18:30;;;;;;;;;;;;;;;9.98;67.07;95217.05;110165;1243;59760;-68
2023/03/11 00:21:00;;;;;;;;;;;;;;;9.96;66.94;95216.50;110146;1244;70716;-67
2023/03/11 00:23:29;;;;;;;;;;;;;;;9.94;67.03;95216.00;110174;1241;69217;-67
2023/03/11 00:26:00;;;;;;;;;;;;;;;9.91;67.16;95214.05;110144;1243;69338;-67
2023/03/11 00:28:29;;;;;;;;;;;;;;;9.88;67.56;95211.25;110159;1244;59670;-67
2023/03/11 00:31:02;;;;;;;;;;;;;;;9.84;68.14;95210.61;110107;1243;59601;-67
2023/03/11 00:33:31;;;;;;;;;;;;;;;9.80;68.65;95203.53;110123;1241;70696;-68
2023/03/11 00:36:00;;;;;;;;;;;;;;;9.76;68.98;95201.52;110135;1244;69816;-68
2023/03/11 00:38:30;;;;;;;;;;;;;;;9.72;69.69;95198.77;110156;1241;69240;-68
2023/03/11 00:41:01;;;;;;;;;;;;;;;9.69;71.11;95198.27;110153;1244;59743;-67
2023/03/11 00:43:31;;;;;;;;;;;;;;;9.64;72.38;95190.24;110197;1242;60060;-68
2023/03/11 00:46:03;;;;;;;;;;;;;;;9.59;72.42;95188.21;110161;1244;71616;-67
2023/03/11 00:48:33;;;;;;;;;;;;;;;9.52;72.80;95185.59;110148;1243;69303;-68
2023/03/11 00:51:05;;;;;;;;;;;;;;;9.45;74.03;95183.02;110099;1244;69362;-67
2023/03/11 00:53:35;;;;;;;;;;;;;;;9.38;74.90;95188.80;110133;1241;59688;-67
2023/03/11 00:56:11;;;;;;;;;;;;;;;9.32;74.94;95189.79;110179;1241;60143;-67
2023/03/11 00:58:42;;;;;;;;;;;;;;;9.27;74.40;95188.35;110202;1243;71336;-69
2023/03/11 01:01:13;;;;;;;;;;;;;;;9.24;73.54;95183.27;110195;1241;69352;-67
2023/03/11 01:03:43;;;;;;;;;;;;;;;9.24;72.55;95178.64;110131;1245;69959;-67
2023/03/11 01:06:13;;;;;;;;;;;;;;;9.24;71.67;95172.13;110147;1241;60369;-67
2023/03/11 01:08:43;;;;;;;;;;;;;;;9.26;71.18;95165.69;110214;1241;59680;-67
2023/03/11 01:11:12;;;;;;;;;;;;;;;9.27;72.02;95163.66;110230;1241;71396;-67
2023/03/11 01:13:42;;;;;;;;;;;;;;;9.29;70.76;95156.02;109564;1244;751478;-67
2023/03/11 01:16:11;;;;;;;;;;;;;;;9.30;71.13;95156.45;110115;1244;68523;-67
2023/03/11 01:18:41;;;;;;;;;;;;;;;9.30;71.10;95155.34;110112;1241;59763;-67
2023/03/11 01:21:09;;;;;;;;;;;;;;;9.32;70.34;95154.52;110208;1244;59682;-67
2023/03/11 01:23:40;;;;;;;;;;;;;;;9.33;70.42;95151.95;110153;1241;71428;-67
2023/03/11 01:26:14;;;;;;;;;;;;;;;9.34;70.37;95151.34;110177;1244;69308;-69
2023/03/11 01:28:43;;;;;;;;;;;;;;;9.33;72.31;95150.90;110162;1241;69245;-68
2023/03/11 01:31:12;;;;;;;;;;;;;;;9.31;73.61;95142.30;110196;1245;59672;-67
2023/03/11 01:33:41;;;;;;;;;;;;;;;9.28;72.31;95135.91;110134;1242;60012;-67
2023/03/11 01:36:13;;;;;;;;;;;;;;;9.26;72.90;95135.16;110134;1243;71430;-67
2023/03/11 01:38:43;;;;;;;;;;;;;;;9.24;72.29;95132.01;110194;1246;67453;-67
2023/03/11 01:41:12;;;;;;;;;;;;;;;9.23;71.56;95126.17;110167;1244;69308;-69
2023/03/11 01:43:42;;;;;;;;;;;;;;;9.22;71.06;95121.06;110205;1242;59694;-67
2023/03/11 01:46:24;;;;;;;;;;;;;;;9.21;71.10;95118.23;110183;1244;59713;-69
2023/03/11 01:48:57;;;;;;;;;;;;;;;9.19;71.08;95114.95;110130;1245;71391;-67
2023/03/11 01:51:32;;;;;;;;;;;;;;;9.14;72.29;95107.45;110174;1244;69618;-67
2023/03/11 01:54:06;;;;;;;;;;;;;;;9.10;73.25;95103.36;110191;1241;68420;-68
2023/03/11 01:56:37;;;;;;;;;;;;;;;9.05;74.59;95101.13;110164;1245;59690;-67
2023/03/11 01:59:12;;;;;;;;;;;;;;;8.99;75.89;95098.27;110187;1241;59697;-68
2023/03/11 02:01:51;;;;;;;;;;;;;;;8.92;75.47;95097.58;110124;1245;69636;-68
2023/03/11 02:04:22;;;;;;;;;;;;;;;8.84;75.85;95093.56;110232;1244;67337;-67
2023/03/11 02:06:55;;;;;;;;;;;;;;;8.75;74.89;95093.11;110140;1243;69300;-67
2023/03/11 02:09:25;;;;;;;;;;;;;;;8.67;76.34;95096.17;110198;1243;59756;-68
2023/03/11 02:11:56;;;;;;;;;;;;;;;8.58;76.86;95094.30;110099;1241;59684;-68
2023/03/11 02:14:29;;;;;;;;;;;;;;;8.54;76.59;95096.46;110126;1243;71974;-67
2023/03/11 02:16:59;;;;;;;;;;;;;;;8.47;76.30;95097.80;110137;1247;69270;-67
2023/03/11 02:19:36;;;;;;;;;;;;;;;8.42;76.63;95095.59;110224;1241;69273;-67
2023/03/11 02:22:07;;;;;;;;;;;;;;;8.38;76.01;95095.11;110189;1243;59782;-67
2023/03/11 02:24:38;;;;;;;;;;;;;;;8.37;75.64;95098.85;110147;1241;59730;-67
2023/03/11 02:27:09;;;;;;;;;;;;;;;8.36;75.30;95094.93;110130;1244;70452;-67
2023/03/11 02:29:40;;;;;;;;;;;;;;;8.36;76.64;95089.73;110144;1241;69178;-67
2023/03/11 02:32:10;;;;;;;;;;;;;;;8.35;76.76;95087.41;110137;1241;68183;-67
2023/03/11 02:34:43;;;;;;;;;;;;;;;8.33;77.36;95085.66;110123;1244;59685;-67
2023/03/11 02:37:14;;;;;;;;;;;;;;;8.31;77.80;95087.94;110166;1244;59705;-68
2023/03/11 02:39:49;;;;;;;;;;;;;;;8.28;77.06;95090.19;110201;1241;71448;-67
2023/03/11 02:42:19;;;;;;;;;;;;;;;8.26;77.41;95089.38;110148;1244;69824;-68
2023/03/11 02:45:10;;;;;;;;;;;;;;;8.24;80.22;95093.02;110122;1243;69258;-67
2023/03/11 02:47:40;;;;;;;;;;;;;;;8.19;80.35;95091.06;110125;1242;59747;-68
2023/03/11 02:50:12;;;;;;;;;;;;;;;8.15;79.18;95088.40;110176;1243;59672;-68
2023/03/11 02:52:42;;;;;;;;;;;;;;;8.09;79.16;95088.63;110156;1244;71384;-67
2023/03/11 02:55:14;;;;;;;;;;;;;;;8.05;79.68;95087.08;110107;1241;69416;-67
2023/03/11 02:57:44;;;;;;;;;;;;;;;8.04;79.92;95088.92;110151;1244;69131;-67
2023/03/11 03:00:15;;;;;;;;;;;;;;;8.04;78.80;95093.62;110194;1242;59721;-68
2023/03/11 03:02:52;;;;;;;;;;;;;;;8.04;78.60;95089.65;110165;1243;59681;-67
2023/03/11 03:05:21;;;;;;;;;;;;;;;8.05;79.94;95086.98;110074;1244;71341;-67
2023/03/11 03:07:52;;;;;;;;;;;;;;;8.06;80.53;95082.88;110149;1241;68648;-68
2023/03/11 03:10:22;;;;;;;;;;;;;;;8.07;79.69;95078.27;110144;1241;68445;-67
2023/03/11 03:12:51;;;;;;;;;;;;;;;8.05;79.67;95073.36;110144;1244;59714;-69
2023/03/11 03:15:23;;;;;;;;;;;;;;;8.03;80.49;95071.14;110154;1243;59766;-67
2023/03/11 03:17:53;;;;;;;;;;;;;;;8.01;80.15;95072.27;110150;1244;71486;-67
2023/03/11 03:20:25;;;;;;;;;;;;;;;7.99;80.28;95077.48;110221;1244;68441;-69
2023/03/11 03:22:56;;;;;;;;;;;;;;;7.98;80.51;95068.77;110232;1244;69216;-69
2023/03/11 03:25:28;;;;;;;;;;;;;;;7.96;79.86;95066.46;110200;1244;59718;-68
2023/03/11 03:28:01;;;;;;;;;;;;;;;7.97;79.60;95061.59;110140;1243;59681;-69
2023/03/11 03:30:31;;;;;;;;;;;;;;;7.96;82.62;95058.82;110183;1241;71793;-67
2023/03/11 03:33:02;;;;;;;;;;;;;;;7.94;83.29;95057.85;110155;1241;68497;-67
2023/03/11 03:35:32;;;;;;;;;;;;;;;7.90;84.28;95050.94;110112;1245;68962;-67
2023/03/11 03:38:08;;;;;;;;;;;;;;;7.88;85.22;95047.89;110167;1244;59751;-67
2023/03/11 03:40:39;;;;;;;;;;;;;;;7.89;83.76;95048.77;110154;1244;59685;-69
2023/03/11 03:43:09;;;;;;;;;;;;;;;7.92;82.49;95052.12;110144;1243;71333;-68
2023/03/11 03:45:40;;;;;;;;;;;;;;;7.95;83.21;95059.09;110130;1244;68842;-69
2023/03/11 03:48:10;;;;;;;;;;;;;;;7.97;84.25;95057.39;110127;1245;69401;-68
2023/03/11 03:50:42;;;;;;;;;;;;;;;7.98;82.91;95053.59;109973;1244;59747;-68
2023/03/11 03:53:14;;;;;;;;;;;;;;;8.03;81.65;95039.63;110182;1241;59691;-68
2023/03/11 03:55:43;;;;;;;;;;;;;;;8.09;80.68;95026.80;110156;1243;70683;-68
2023/03/11 03:58:14;;;;;;;;;;;;;;;8.09;88.23;95034.06;110153;1241;68483;-68
2023/03/11 04:00:44;;;;;;;;;;;;;;;8.04;86.51;95031.52;110065;1244;69854;-68
2023/03/11 04:03:14;;;;;;;;;;;;;;;8.02;83.83;95030.52;110172;1241;59807;-67
2023/03/11 04:05:49;;;;;;;;;;;;;;;8.04;86.88;95023.94;110179;1241;59678;-68
2023/03/11 04:08:20;;;;;;;;;;;;;;;8.01;91.53;95024.39;110173;1241;71952;-67
2023/03/11 04:10:57;;;;;;;;;;;;;;;7.97;92.55;95025.48;110184;1243;69843;-67
2023/03/11 04:13:27;;;;;;;;;;;;;;;7.92;93.66;95024.09;110129;1241;68673;-68
2023/03/11 04:15:56;;;;;;;;;;;;;;;7.89;94.30;95022.80;110142;1241;59741;-68
2023/03/11 04:18:25;;;;;;;;;;;;;;;7.88;92.91;95025.01;110139;1244;59713;-67
2023/03/11 04:20:55;;;;;;;;;;;;;;;7.88;93.27;95027.58;110180;1241;71360;-68
2023/03/11 04:23:25;;;;;;;;;;;;;;;7.87;93.37;95021.40;110108;1244;68371;-68
2023/03/11 04:25:54;;;;;;;;;;;;;;;7.84;89.44;95017.17;110147;1244;69855;-67
2023/03/11 04:28:24;;;;;;;;;;;;;;;7.81;88.69;95015.11;110123;1244;59764;-67
2023/03/11 04:30:54;;;;;;;;;;;;;;;7.78;91.26;95009.73;110197;1244;59705;-67
2023/03/11 04:33:24;;;;;;;;;;;;;;;7.73;96.64;95009.46;110156;1244;71292;-67
2023/03/11 04:35:54;;;;;;;;;;;;;;;7.67;96.33;95005.90;110237;1241;68501;-68
2023/03/11 04:38:23;;;;;;;;;;;;;;;7.63;95.36;94995.84;110091;1244;68247;-67
2023/03/11 04:40:53;;;;;;;;;;;;;;;7.62;93.96;94993.06;110168;1241;59710;-68
2023/03/11 04:43:22;;;;;;;;;;;;;;;7.61;96.88;94999.86;110215;1245;59696;-68
2023/03/11 04:45:52;;;;;;;;;;;;;;;7.56;99.29;95000.23;110156;1244;72121;-68
2023/03/11 04:48:23;;;;;;;;;;;;;;;7.51;99.86;95000.58;110235;1241;67603;-69
2023/03/11 04:50:52;;;;;;;;;;;;;;;7.46;99.23;95001.95;110084;1244;69677;-67
2023/03/11 04:53:21;;;;;;;;;;;;;;;7.43;99.93;94997.38;110224;1242;59679;-67
2023/03/11 04:55:52;;;;;;;;;;;;;;;7.42;100.00;94997.80;110149;1241;59709;-68
2023/03/11 04:58:22;;;;;;;;;;;;;;;7.43;100.00;94996.34;110165;1243;72350;-68
2023/03/11 05:00:51;;;;;;;;;;;;;;;7.44;100.00;94993.44;110185;1244;69587;-68
2023/03/11 05:03:21;;;;;;;;;;;;;;;7.46;100.00;94992.73;110065;1244;69274;-68
2023/03/11 05:05:52;;;;;;;;;;;;;;;7.47;100.00;94992.60;110192;1241;59740;-68
2023/03/11 05:08:22;;;;;;;;;;;;;;;7.50;100.00;94990.65;110192;1243;60022;-68
2023/03/11 05:10:51;;;;;;;;;;;;;;;7.52;100.00;94988.19;110121;1244;71975;-68
2023/03/11 05:13:22;;;;;;;;;;;;;;;7.53;100.00;94989.64;110140;1244;69237;-68
2023/03/11 05:15:52;;;;;;;;;;;;;;;7.54;100.00;94991.81;110173;1244;68505;-68
2023/03/11 05:18:21;;;;;;;;;;;;;;;7.55;100.00;94990.61;110118;1241;59743;-68
2023/03/11 05:20:50;;;;;;;;;;;;;;;7.56;100.00;94986.39;110136;1244;59695;-68
2023/03/11 05:23:21;;;;;;;;;;;;;;;7.57;100.00;94984.73;110194;1244;70386;-68
2023/03/11 05:25:51;;;;;;;;;;;;;;;7.58;100.00;94982.65;110256;1243;69856;-68
2023/03/11 05:28:20;;;;;;;;;;;;;;;7.62;100.00;94986.46;110187;1241;69878;-68
2023/03/11 05:30:51;;;;;;;;;;;;;;;7.64;100.00;94986.42;110230;1244;59793;-68
2023/03/11 05:33:20;;;;;;;;;;;;;;;7.65;100.00;94990.61;110161;1242;59717;-68
2023/03/11 05:35:50;;;;;;;;;;;;;;;7.68;100.00;94990.02;110179;1241;71351;-68
2023/03/11 05:38:19;;;;;;;;;;;;;;;7.70;100.00;94988.92;110121;1244;69762;-67
2023/03/11 05:40:48;;;;;;;;;;;;;;;7.73;100.00;94992.52;110184;1241;69090;-68
2023/03/11 05:43:17;;;;;;;;;;;;;;;7.76;100.00;94994.81;110286;1242;59765;-68
2023/03/11 05:45:48;;;;;;;;;;;;;;;7.78;100.00;94996.33;110122;1244;59727;-67
2023/03/11 05:48:17;;;;;;;;;;;;;;;7.81;100.00;94997.88;110184;1241;71271;-68
2023/03/11 05:50:46;;;;;;;;;;;;;;;7.86;100.00;94990.89;110123;1241;69277;-68
2023/03/11 05:53:15;;;;;;;;;;;;;;;7.89;100.00;94989.98;110161;1241;69261;-68
2023/03/11 05:55:43;;;;;;;;;;;;;;;7.91;99.64;94985.29;110150;1244;59782;-68
2023/03/11 05:58:12;;;;;;;;;;;;;;;7.94;99.07;94986.44;110110;1244;59694;-67
2023/03/11 06:00:41;;;;;;;;;;;;;;;7.96;98.57;94993.36;110217;1241;71863;-68
2023/03/11 06:03:09;;;;;;;;;;;;;;;7.98;99.71;94997.84;110180;1243;69122;-67
2023/03/11 06:05:43;;;;;;;;;;;;;;;7.99;99.71;94999.11;109987;1245;69665;-67
2023/03/11 06:08:12;;;;;;;;;;;;;;;8.02;98.55;95005.15;110159;1244;59741;-67
2023/03/11 06:10:42;;;;;;;;;;;;;;;8.05;99.10;95004.50;110149;1243;59682;-69
2023/03/11 06:13:11;;;;;;;;;;;;;;;8.07;99.58;95009.77;110134;1241;71935;-69
2023/03/11 06:15:48;;;;;;;;;;;;;;;8.08;99.91;95016.21;110169;1243;69228;-68
2023/03/11 06:18:18;;;;;;;;;;;;;;;8.16;99.95;95017.46;110334;1245;69199;-67
2023/03/11 06:20:47;;;;;;;;;;;;;;;8.22;100.00;95022.66;110180;1244;59769;-69
2023/03/11 06:23:16;;;;;;;;;;;;;;;8.19;100.00;95027.60;110188;1243;60153;-69
2023/03/11 06:25:54;;;;;;;;;;;;;;;8.23;100.00;95035.39;110161;1241;71696;-67
2023/03/11 06:28:23;;;;;;;;;;;;;;;8.21;100.00;95035.35;110216;1241;68632;-68
2023/03/11 06:30:52;;;;;;;;;;;;;;;8.25;100.00;95036.89;110249;1244;69281;-67
2023/03/11 06:33:22;;;;;;;;;;;;;;;8.22;100.00;95035.45;110187;1244;59725;-68
2023/03/11 06:36:01;;;;;;;;;;;;;;;8.18;100.00;95045.86;110113;1241;59673;-67
2023/03/11 06:38:30;;;;;;;;;;;;;;;8.15;100.00;95038.56;110187;1244;71763;-68
2023/03/11 06:41:00;;;;;;;;;;;;;;;8.07;100.00;95048.73;110143;1241;69121;-67
2023/03/11 06:43:30;;;;;;;;;;;;;;;8.08;100.00;95049.20;110184;1241;69079;-67
2023/03/11 06:45:59;;;;;;;;;;;;;;;8.05;100.00;95055.03;110194;1245;59663;-67
2023/03/11 06:48:28;;;;;;;;;;;;;;;8.02;100.00;95059.42;110147;1244;59617;-68
2023/03/11 06:50:58;;;;;;;;;;;;;;;7.93;100.00;95060.58;110140;1245;71258;-67
2023/03/11 06:53:28;;;;;;;;;;;;;;;7.88;100.00;95061.36;110174;1241;69860;-68
2023/03/11 06:56:07;;;;;;;;;;;;;;;7.82;100.00;95065.30;110221;1241;69307;-67
2023/03/11 06:58:41;;;;;;;;;;;;;;;7.75;100.00;95076.35;110182;1245;59666;-67
2023/03/11 07:01:15;;;;;;;;;;;;;;;7.70;100.00;95088.86;110161;1244;59676;-67
2023/03/11 07:03:45;;;;;;;;;;;;;;;7.70;100.00;95095.13;110178;1241;71210;-67
2023/03/11 07:06:18;;;;;;;;;;;;;;;7.65;100.00;95098.86;110138;1241;68364;-67
2023/03/11 07:08:48;;;;;;;;;;;;;;;7.65;100.00;95111.11;110169;1244;69700;-68
2023/03/11 07:11:18;;;;;;;;;;;;;;;7.69;100.00;95118.10;110112;1241;59752;-68
2023/03/11 07:13:49;;;;;;;;;;;;;;;7.71;100.00;95120.29;110184;1241;59700;-68
2023/03/11 07:16:19;;;;;;;;;;;;;;;7.72;100.00;95120.86;110191;1244;71893;-68
2023/03/11 07:18:50;;;;;;;;;;;;;;;7.69;100.00;95127.27;110187;1244;68557;-68
2023/03/11 07:21:20;;;;;;;;;;;;;;;7.67;100.00;95131.21;110156;1245;68512;-68
2023/03/11 07:23:53;;;;;;;;;;;;;;;7.68;100.00;95131.39;110137;1241;59669;-68
2023/03/11 07:26:23;;;;;;;;;;;;;;;7.65;100.00;95134.06;110227;1242;59683;-68
2023/03/11 07:28:53;;;;;;;;;;;;;;;7.60;100.00;95138.14;110158;1242;71371;-68
2023/03/11 07:31:23;;;;;;;;;;;;;;;7.57;100.00;95139.13;110273;1241;68664;-68
2023/03/11 07:33:52;;;;;;;;;;;;;;;7.55;100.00;95137.05;110154;1244;68323;-68
2023/03/11 07:36:22;;;;;;;;;;;;;;;7.48;100.00;95133.92;110124;1242;59699;-67
2023/03/11 07:38:57;;;;;;;;;;;;;;;7.50;100.00;95135.35;110200;1244;59747;-67
2023/03/11 07:41:26;;;;;;;;;;;;;;;7.49;100.00;95133.52;110147;1244;71249;-67
2023/03/11 07:43:55;;;;;;;;;;;;;;;7.48;100.00;95133.64;110162;1241;68914;-67
2023/03/11 07:46:24;;;;;;;;;;;;;;;7.43;100.00;95132.02;110273;1242;68349;-68
2023/03/11 07:48:53;;;;;;;;;;;;;;;7.40;100.00;95128.61;110173;1241;60161;-67
2023/03/11 07:51:23;;;;;;;;;;;;;;;7.44;100.00;95133.61;110377;1241;59734;-68
2023/03/11 07:53:53;;;;;;;;;;;;;;;7.45;100.00;95136.13;110291;1243;71236;-68
2023/03/11 07:56:23;;;;;;;;;;;;;;;7.46;100.00;95142.01;110200;1244;67752;-68
2023/03/11 07:58:52;;;;;;;;;;;;;;;7.45;100.00;95141.20;110149;1241;69249;-68
2023/03/11 08:01:21;;;;;;;;;;;;;;;7.52;100.00;95138.81;110158;1241;59744;-68
2023/03/11 08:03:55;;;;;;;;;;;;;;;7.55;100.00;95136.60;110220;1241;59731;-67
2023/03/11 08:06:30;;;;;;;;;;;;;;;7.62;100.00;95132.64;110150;1243;71361;-68
2023/03/11 08:08:59;;;;;;;;;;;;;;;7.65;100.00;95133.19;110178;1243;69266;-68
2023/03/11 08:11:29;;;;;;;;;;;;;;;7.67;100.00;95135.86;110144;1241;69119;-68
2023/03/11 08:13:57;;;;;;;;;;;;;;;7.64;100.00;95136.17;110180;1241;59749;-67
2023/03/11 08:16:26;;;;;;;;;;;;;;;7.69;100.00;95127.76;110201;1243;59633;-68
2023/03/11 08:18:55;;;;;;;;;;;;;;;7.76;100.00;95133.48;110170;1241;71363;-68
2023/03/11 08:21:25;;;;;;;;;;;;;;;7.85;100.00;95129.35;110168;1242;68297;-68
2023/03/11 08:23:56;;;;;;;;;;;;;;;7.93;100.00;95127.69;110149;1241;68731;-67
2023/03/11 08:26:24;;;;;;;;;;;;;;;7.94;100.00;95130.14;110220;1241;59741;-67
2023/03/11 08:28:54;;;;;;;;;;;;;;;7.98;100.00;95130.09;110243;1242;59724;-68
2023/03/11 08:31:24;;;;;;;;;;;;;;;8.04;100.00;95131.98;110234;1241;71971;-67
2023/03/11 08:33:53;;;;;;;;;;;;;;;8.14;100.00;95130.81;110227;1241;68422;-67
2023/03/11 08:36:22;;;;;;;;;;;;;;;8.27;100.00;95125.02;110140;1244;69094;-67
2023/03/11 08:38:51;;;;;;;;;;;;;;;8.38;99.46;95122.89;110109;1243;59703;-67
2023/03/11 08:41:21;;;;;;;;;;;;;;;8.45;98.33;95117.28;110119;1243;59775;-68
2023/03/11 08:43:51;;;;;;;;;;;;;;;8.53;95.85;95121.16;110187;1244;71397;-68
2023/03/11 08:46:31;;;;;;;;;;;;;;;8.68;96.84;95128.84;110158;1243;69053;-68
2023/03/11 08:49:01;;;;;;;;;;;;;;;8.86;97.47;95128.98;110141;1243;69715;-68
2023/03/11 08:51:30;;;;;;;;;;;;;;;8.99;95.32;95128.39;110140;1245;59691;-68
2023/03/11 08:53:59;;;;;;;;;;;;;;;9.11;92.95;95124.59;110177;1241;59757;-68
2023/03/11 08:56:28;;;;;;;;;;;;;;;9.16;92.60;95124.01;110171;1243;71165;-68
2023/03/11 08:58:58;;;;;;;;;;;;;;;9.32;93.52;95130.80;110260;1241;68823;-68
2023/03/11 09:01:28;;;;;;;;;;;;;;;9.39;92.96;95129.18;110134;1242;69719;-69
2023/03/11 09:03:57;;;;;;;;;;;;;;;9.48;93.85;95128.08;110305;1241;59715;-67
2023/03/11 09:06:25;;;;;;;;;;;;;;;9.67;92.30;95129.43;110206;1243;60087;-67
2023/03/11 09:08:54;;;;;;;;;;;;;;;9.70;90.15;95128.56;110193;1241;71414;-68
2023/03/11 09:11:23;;;;;;;;;;;;;;;9.76;88.06;95128.13;110178;1244;69267;-68
2023/03/11 09:13:52;;;;;;;;;;;;;;;9.79;88.50;95134.40;110214;1242;69744;-69
2023/03/11 09:16:21;;;;;;;;;;;;;;;10.05;86.24;95137.70;110262;1241;59744;-70
2023/03/11 09:18:50;;;;;;;;;;;;;;;10.52;86.45;95136.33;110247;1241;59661;-69
2023/03/11 09:21:19;;;;;;;;;;;;;;;11.56;84.58;95137.54;110299;1241;71183;-68
2023/03/11 09:23:47;;;;;;;;;;;;;;;12.12;81.37;95137.84;110168;1243;69772;-66
2023/03/11 09:26:16;;;;;;;;;;;;;;;12.40;76.96;95140.81;110147;1248;69878;-68
2023/03/11 09:28:47;;;;;;;;;;;;;;;13.16;73.25;95135.90;110153;1243;60097;-68
2023/03/11 09:31:17;;;;;;;;;;;;;;;13.68;68.77;95136.73;110182;1244;59722;-68
2023/03/11 09:33:46;;;;;;;;;;;;;;;14.09;70.40;95138.47;110196;1245;71927;-68
2023/03/11 09:36:16;;;;;;;;;;;;;;;14.48;69.80;95142.61;110153;1244;68577;-68
2023/03/11 09:38:44;;;;;;;;;;;;;;;14.43;65.93;95142.95;110229;1244;69811;-69
2023/03/11 09:41:12;;;;;;;;;;;;;;;14.22;65.53;95141.71;110152;1243;59763;-69
2023/03/11 09:43:53;;;;;;;;;;;;;;;13.37;65.62;95141.15;110203;1244;59652;-68
2023/03/11 09:46:40;;;;;;;;;;;;;;;13.05;67.31;95143.10;110153;1241;71163;-67
2023/03/11 09:49:12;;;;;;;;;;;;;;;12.91;68.95;95142.98;110140;1243;69214;-68
2023/03/11 09:51:56;;;;;;;;;;;;;;;12.96;68.61;95145.76;110156;1244;68797;-67
2023/03/11 09:54:27;;;;;;;;;;;;;;;12.56;67.28;95150.23;110222;1242;59711;-69
2023/03/11 09:56:56;;;;;;;;;;;;;;;12.28;65.71;95148.05;110179;1241;60075;-67
2023/03/11 09:59:29;;;;;;;;;;;;;;;12.19;62.73;95146.66;110118;1244;71279;-67
2023/03/11 10:01:58;;;;;;;;;;;;;;;12.99;63.93;95144.34;110142;1243;68375;-68
2023/03/11 10:04:27;;;;;;;;;;;;;;;13.74;61.26;95145.23;110170;1244;68965;-66
2023/03/11 10:06:56;;;;;;;;;;;;;;;14.87;59.03;95135.69;110148;1242;59675;-69
2023/03/11 10:09:33;;;;;;;;;;;;;;;15.45;55.78;95137.16;110200;1244;59627;-70
2023/03/11 10:12:17;;;;;;;;;;;;;;;14.78;49.91;95142.31;110131;1244;70743;-70
2023/03/11 10:14:58;;;;;;;;;;;;;;;13.95;48.50;95137.20;110188;1241;69799;-68
2023/03/11 10:17:35;;;;;;;;;;;;;;;13.08;49.16;95148.70;110231;1243;70034;-68
2023/03/11 10:20:11;;;;;;;;;;;;;;;12.57;49.58;95154.37;110179;1241;59672;-70
2023/03/11 10:22:45;;;;;;;;;;;;;;;12.52;51.10;95155.45;110172;1243;59665;-69
2023/03/11 10:25:24;;;;;;;;;;;;;;;12.26;46.37;95156.71;110157;1241;71334;-68
2023/03/11 10:28:04;;;;;;;;;;;;;;;12.84;44.79;95164.58;110170;1242;69746;-68
2023/03/11 10:30:35;;;;;;;;;;;;;;;13.52;42.98;95155.61;110100;1245;69718;-69
2023/03/11 10:33:04;;;;;;;;;;;;;;;14.51;42.61;95149.72;110153;1241;59779;-68
2023/03/11 10:35:38;;;;;;;;;;;;;;;15.41;41.91;95154.09;110115;1243;59627;-68
2023/03/11 10:38:16;;;;;;;;;;;;;;;16.20;39.23;95149.38;110139;1242;70640;-68
2023/03/11 10:40:46;;;;;;;;;;;;;;;16.83;37.50;95162.47;110139;1241;69104;-68
2023/03/11 10:43:18;;;;;;;;;;;;;;;17.03;33.96;95159.44;110127;1241;69243;-69
2023/03/11 10:45:48;;;;;;;;;;;;;;;17.62;34.14;95163.73;110175;1243;60156;-68
2023/03/11 10:48:17;;;;;;;;;;;;;;;17.31;30.96;95168.87;110148;1243;59679;-68
2023/03/11 10:50:46;;;;;;;;;;;;;;;16.95;31.11;95166.16;110174;1244;71416;-67
2023/03/11 10:53:17;;;;;;;;;;;;;;;16.91;30.35;95166.23;110170;1241;69363;-69
2023/03/11 10:55:48;;;;;;;;;;;;;;;17.60;30.82;95157.31;110132;1241;69259;-70
2023/03/11 10:58:18;;;;;;;;;;;;;;;18.34;30.83;95155.23;110163;1244;59672;-69
2023/03/11 11:00:58;;;;;;;;;;;;;;;18.69;30.33;95145.04;110170;1241;59679;-67
2023/03/11 11:03:27;;;;;;;;;;;;;;;19.44;30.11;95135.95;110161;1241;70892;-67
2023/03/11 11:06:02;;;;;;;;;;;;;;;19.10;27.90;95129.69;110197;1244;69205;-68
2023/03/11 11:08:32;;;;;;;;;;;;;;;17.11;28.27;95130.80;110132;1241;69163;-67
2023/03/11 11:11:02;;;;;;;;;;;;;;;16.62;30.08;95129.85;110161;1245;59751;-67
2023/03/11 11:13:33;;;;;;;;;;;;;;;16.26;31.25;95135.44;110180;1241;59702;-68
2023/03/11 11:16:19;;;;;;;;;;;;;;;15.63;32.13;95143.70;110182;1241;71797;-68
2023/03/11 11:18:48;;;;;;;;;;;;;;;14.88;32.91;95139.66;110160;1241;70036;-67
2023/03/11 11:21:27;;;;;;;;;;;;;;;13.38;34.21;95146.03;110131;1244;69091;-69
2023/03/11 11:24:05;;;;;;;;;;;;;;;13.20;35.53;95152.88;110162;1241;59690;-67
2023/03/11 11:26:34;;;;;;;;;;;;;;;12.98;36.85;95155.39;110123;1241;59704;-67
2023/03/11 11:29:08;;;;;;;;;;;;;;;12.68;37.40;95162.30;110194;1241;71404;-67
2023/03/11 11:31:39;;;;;;;;;;;;;;;12.54;37.37;95158.02;110174;1243;68139;-69
2023/03/11 11:34:28;;;;;;;;;;;;;;;12.20;37.96;95156.02;110147;1247;69280;-68
2023/03/11 11:36:58;;;;;;;;;;;;;;;12.03;38.56;95148.45;110121;1243;59772;-69
2023/03/11 11:39:29;;;;;;;;;;;;;;;11.99;39.56;95155.23;110189;1244;59718;-67
2023/03/11 11:41:58;;;;;;;;;;;;;;;11.87;39.54;95149.48;110229;1244;70268;-68
2023/03/11 11:44:32;;;;;;;;;;;;;;;11.78;40.02;95154.96;110157;1241;69846;-67
2023/03/11 11:47:11;;;;;;;;;;;;;;;11.59;40.18;95149.92;110136;1245;69142;-69
2023/03/11 11:49:43;;;;;;;;;;;;;;;11.58;40.60;95150.23;110178;1243;59679;-67
2023/03/11 11:52:15;;;;;;;;;;;;;;;11.43;40.96;95153.67;110095;1245;59707;-69
2023/03/11 11:54:46;;;;;;;;;;;;;;;11.32;41.49;95147.39;110178;1241;71652;-68
2023/03/11 11:57:17;;;;;;;;;;;;;;;11.16;41.46;95150.96;110169;1244;69574;-69
2023/03/11 11:59:46;;;;;;;;;;;;;;;10.99;42.67;95158.31;110145;1242;69102;-69
2023/03/11 12:02:33;;;;;;;;;;;;;;;10.97;42.64;95161.29;110186;1244;59732;-69
2023/03/11 12:05:28;;;;;;;;;;;;;;;10.96;43.18;95159.11;110187;1243;59690;-69
2023/03/11 12:08:09;;;;;;;;;;;;;;;10.92;42.75;95157.91;110128;1243;70671;-70
2023/03/11 12:10:40;;;;;;;;;;;;;;;10.95;42.66;95153.61;110213;1244;69243;-70
2023/03/11 12:13:28;;;;;;;;;;;;;;;10.94;43.20;95156.52;110206;1241;69704;-69
2023/03/11 12:16:04;;;;;;;;;;;;;;;11.03;43.29;95158.29;110205;1245;59750;-69
2023/03/11 12:18:42;;;;;;;;;;;;;;;11.15;43.43;95164.34;110173;1241;59688;-68
2023/03/11 12:21:22;;;;;;;;;;;;;;;11.19;43.47;95167.87;110128;1241;71885;-68
2023/03/11 12:23:57;;;;;;;;;;;;;;;11.23;44.13;95171.59;110185;1241;69415;-69
2023/03/11 12:26:27;;;;;;;;;;;;;;;11.30;44.53;95177.99;110146;1245;68811;-68
2023/03/11 12:29:03;;;;;;;;;;;;;;;11.23;44.44;95182.61;110173;1241;59744;-68
2023/03/11 12:31:37;;;;;;;;;;;;;;;11.17;43.40;95188.18;110175;1241;59643;-69
2023/03/11 12:34:10;;;;;;;;;;;;;;;11.12;43.00;95189.39;110213;1243;71209;-70
2023/03/11 12:36:40;;;;;;;;;;;;;;;11.15;42.43;95201.27;110208;1244;67478;-69
2023/03/11 12:39:38;;;;;;;;;;;;;;;11.09;42.21;95210.64;110193;1245;69690;-68
2023/03/11 12:42:09;;;;;;;;;;;;;;;10.74;41.41;95215.00;110100;1243;59745;-68
2023/03/11 12:44:39;;;;;;;;;;;;;;;10.60;40.27;95216.96;110195;1245;59637;-69
2023/03/11 12:47:07;;;;;;;;;;;;;;;10.55;40.18;95217.52;110187;1244;70616;-69
2023/03/11 12:49:35;;;;;;;;;;;;;;;10.51;39.66;95221.27;110206;1241;68735;-69
2023/03/11 12:52:04;;;;;;;;;;;;;;;10.36;39.00;95218.58;110186;1245;68915;-69
2023/03/11 12:54:38;;;;;;;;;;;;;;;10.28;39.05;95224.93;110160;1243;59760;-69
2023/03/11 12:57:07;;;;;;;;;;;;;;;10.11;38.89;95229.85;110183;1244;59701;-69
2023/03/11 12:59:39;;;;;;;;;;;;;;;10.06;39.37;95232.59;110165;1241;71365;-68
2023/03/11 13:02:26;;;;;;;;;;;;;;;10.00;39.78;95231.24;110190;1244;69699;-69